sensor_id;sensor_type;location;lat;lon;timestamp;pressure;altitude;pressure_sealevel;temperature;humidity
73016;BME280;61893;50.074;14.440;2023-07-13T12:14:25;98286.94;;;27.31;29.80
73016;BME280;61893;50.074;14.440;2023-07-13T12:16:55;98289.91;;;27.24;30.05
73016;BME280;61893;50.074;14.440;2023-07-13T12:19:25;98292.34;;;27.21;29.96
73016;BME280;61893;50.074;14.440;2023-07-13T12:21:55;98292.75;;;26.97;30.64
73016;BME280;61893;50.074;14.440;2023-07-13T12:24:22;98294.81;;;27.17;30.07
73016;BME280;61893;50.074;14.440;2023-07-13T12:27:02;98295.72;;;27.33;30.13
73016;BME280;61893;50.074;14.440;2023-07-13T12:29:33;98292.00;;;27.65;29.17
73016;BME280;61893;50.074;14.440;2023-07-13T12:32:08;98290.38;;;27.74;28.76
73016;BME280;61893;50.074;14.440;2023-07-13T12:34:54;98293.72;;;28.06;28.91
73016;BME280;61893;50.074;14.440;2023-07-13T12:37:24;98297.88;;;28.45;28.43
73016;BME280;61893;50.074;14.440;2023-07-13T12:46:32;98280.19;;;27.54;28.68
73016;BME280;61893;50.074;14.440;2023-07-13T12:49:13;98277.03;;;27.82;28.96
73016;BME280;61893;50.074;14.440;2023-07-13T13:01:04;98279.66;;;26.94;29.51
73016;BME280;61893;50.074;14.440;2023-07-13T13:03:44;98276.13;;;27.56;28.92
73016;BME280;61893;50.074;14.440;2023-07-13T13:06:27;98274.84;;;28.20;28.00
73016;BME280;61893;50.074;14.440;2023-07-13T13:08:57;98278.13;;;28.17;27.83
73016;BME280;61893;50.074;14.440;2023-07-13T13:14:26;98274.78;;;28.87;26.49
73016;BME280;61893;50.074;14.440;2023-07-13T13:17:26;98266.03;;;29.60;26.20
73016;BME280;61893;50.074;14.440;2023-07-13T13:26:18;98260.59;;;28.74;26.70
73016;BME280;61893;50.074;14.440;2023-07-13T13:29:19;98252.59;;;29.04;26.89
73016;BME280;61893;50.074;14.440;2023-07-13T13:31:45;98254.50;;;29.08;27.29
73016;BME280;61893;50.074;14.440;2023-07-13T13:34:13;98249.84;;;29.09;27.38
73016;BME280;61893;50.074;14.440;2023-07-13T13:36:50;98243.81;;;29.07;26.88
73016;BME280;61893;50.074;14.440;2023-07-13T13:41:48;98242.59;;;28.22;30.09
73016;BME280;61893;50.074;14.440;2023-07-13T13:44:16;98249.41;;;27.94;30.21
73016;BME280;61893;50.074;14.440;2023-07-13T13:46:45;98243.59;;;27.65;30.46
73016;BME280;61893;50.074;14.440;2023-07-13T13:49:23;98252.06;;;26.90;31.98
73016;BME280;61893;50.074;14.440;2023-07-13T13:52:15;98255.50;;;26.70;32.48
73016;BME280;61893;50.074;14.440;2023-07-13T13:54:49;98256.06;;;26.78;32.01
73016;BME280;61893;50.074;14.440;2023-07-13T13:58:05;98248.81;;;26.99;31.80
73016;BME280;61893;50.074;14.440;2023-07-13T14:01:02;98258.19;;;27.13;31.49
73016;BME280;61893;50.074;14.440;2023-07-13T14:03:28;98253.31;;;27.20;31.22
73016;BME280;61893;50.074;14.440;2023-07-13T14:05:54;98249.97;;;27.08;31.46
73016;BME280;61893;50.074;14.440;2023-07-13T14:08:23;98254.94;;;27.16;31.56
73016;BME280;61893;50.074;14.440;2023-07-13T14:10:57;98254.28;;;27.04;31.72
73016;BME280;61893;50.074;14.440;2023-07-13T14:13:33;98256.84;;;27.21;31.36
73016;BME280;61893;50.074;14.440;2023-07-13T14:16:02;98253.09;;;26.79;32.04
73016;BME280;61893;50.074;14.440;2023-07-13T14:18:28;98250.84;;;27.24;31.33
73016;BME280;61893;50.074;14.440;2023-07-13T14:20:55;98245.69;;;26.74;31.84
73016;BME280;61893;50.074;14.440;2023-07-13T14:23:32;98242.41;;;27.35;31.45
73016;BME280;61893;50.074;14.440;2023-07-13T14:26:00;98247.50;;;27.79;30.54
73016;BME280;61893;50.074;14.440;2023-07-13T14:28:42;98250.19;;;27.74;30.46
73016;BME280;61893;50.074;14.440;2023-07-13T14:31:17;98254.16;;;27.26;30.77
73016;BME280;61893;50.074;14.440;2023-07-13T14:46:04;98249.63;;;27.77;29.81
73016;BME280;61893;50.074;14.440;2023-07-13T14:48:30;98243.91;;;27.84;29.88
73016;BME280;61893;50.074;14.440;2023-07-13T14:50:57;98248.31;;;28.00;29.64
73016;BME280;61893;50.074;14.440;2023-07-13T14:53:27;98247.41;;;27.54;30.51
73016;BME280;61893;50.074;14.440;2023-07-13T14:55:57;98245.78;;;27.53;30.72
73016;BME280;61893;50.074;14.440;2023-07-13T15:01:07;98235.59;;;27.38;30.31
73016;BME280;61893;50.074;14.440;2023-07-13T15:03:35;98235.88;;;27.31;30.68
73016;BME280;61893;50.074;14.440;2023-07-13T15:06:58;98237.66;;;28.04;30.14
73016;BME280;61893;50.074;14.440;2023-07-13T15:09:43;98227.78;;;28.18;29.39
73016;BME280;61893;50.074;14.440;2023-07-13T15:12:12;98229.44;;;27.83;30.34
73016;BME280;61893;50.074;14.440;2023-07-13T15:14:47;98233.69;;;27.28;30.80
73016;BME280;61893;50.074;14.440;2023-07-13T15:19:56;98228.59;;;27.68;30.02
73016;BME280;61893;50.074;14.440;2023-07-13T15:22:26;98240.59;;;27.67;29.77
73016;BME280;61893;50.074;14.440;2023-07-13T15:24:56;98250.22;;;28.36;29.15
73016;BME280;61893;50.074;14.440;2023-07-13T15:27:22;98238.19;;;28.37;29.33
73016;BME280;61893;50.074;14.440;2023-07-13T15:29:53;98245.56;;;28.16;29.29
73016;BME280;61893;50.074;14.440;2023-07-13T15:35:45;98244.78;;;28.25;29.00
73016;BME280;61893;50.074;14.440;2023-07-13T15:38:30;98245.78;;;27.78;29.72
73016;BME280;61893;50.074;14.440;2023-07-13T15:41:26;98234.94;;;27.94;29.57
73016;BME280;61893;50.074;14.440;2023-07-13T15:46:49;98241.97;;;27.74;29.79
73016;BME280;61893;50.074;14.440;2023-07-13T15:49:20;98241.41;;;27.57;30.12
73016;BME280;61893;50.074;14.440;2023-07-13T15:51:46;98248.50;;;27.58;30.15
73016;BME280;61893;50.074;14.440;2023-07-13T15:54:22;98250.94;;;27.49;30.84
73016;BME280;61893;50.074;14.440;2023-07-13T15:56:53;98249.25;;;27.38;30.55
73016;BME280;61893;50.074;14.440;2023-07-13T15:59:19;98258.72;;;27.15;30.93
73016;BME280;61893;50.074;14.440;2023-07-13T16:01:46;98253.97;;;26.95;31.38
73016;BME280;61893;50.074;14.440;2023-07-13T16:04:15;98256.13;;;26.88;32.18
73016;BME280;61893;50.074;14.440;2023-07-13T16:06:42;98266.94;;;26.67;32.21
73016;BME280;61893;50.074;14.440;2023-07-13T16:09:12;98268.09;;;26.39;32.71
73016;BME280;61893;50.074;14.440;2023-07-13T16:11:43;98266.25;;;26.18;33.37
73016;BME280;61893;50.074;14.440;2023-07-13T16:14:14;98261.09;;;26.16;33.20
73016;BME280;61893;50.074;14.440;2023-07-13T16:16:44;98259.75;;;26.19;33.14
73016;BME280;61893;50.074;14.440;2023-07-13T16:19:10;98260.28;;;26.21;32.99
73016;BME280;61893;50.074;14.440;2023-07-13T16:21:42;98253.50;;;26.23;33.01
73016;BME280;61893;50.074;14.440;2023-07-13T16:24:20;98262.84;;;26.33;32.78
73016;BME280;61893;50.074;14.440;2023-07-13T16:26:47;98258.47;;;26.32;32.79
73016;BME280;61893;50.074;14.440;2023-07-13T16:29:26;98277.19;;;26.50;32.55
73016;BME280;61893;50.074;14.440;2023-07-13T16:32:05;98267.25;;;26.39;32.87
73016;BME280;61893;50.074;14.440;2023-07-13T16:34:32;98260.38;;;26.31;32.66
73016;BME280;61893;50.074;14.440;2023-07-13T16:37:00;98263.72;;;26.43;33.11
73016;BME280;61893;50.074;14.440;2023-07-13T16:39:27;98269.47;;;26.42;32.45
73016;BME280;61893;50.074;14.440;2023-07-13T16:41:55;98279.94;;;26.23;32.54
73016;BME280;61893;50.074;14.440;2023-07-13T16:44:21;98279.19;;;26.00;33.20
73016;BME280;61893;50.074;14.440;2023-07-13T16:46:50;98284.59;;;25.95;33.44
73016;BME280;61893;50.074;14.440;2023-07-13T16:51:55;98290.03;;;26.55;32.58
73016;BME280;61893;50.074;14.440;2023-07-13T16:54:29;98291.19;;;26.64;32.39
73016;BME280;61893;50.074;14.440;2023-07-13T16:57:23;98294.25;;;26.72;32.09
73016;BME280;61893;50.074;14.440;2023-07-13T16:59:53;98302.75;;;26.76;32.18
73016;BME280;61893;50.074;14.440;2023-07-13T17:02:38;98308.63;;;26.58;32.41
73016;BME280;61893;50.074;14.440;2023-07-13T17:05:05;98315.31;;;26.45;32.45
73016;BME280;61893;50.074;14.440;2023-07-13T17:07:32;98318.13;;;26.23;32.75
73016;BME280;61893;50.074;14.440;2023-07-13T17:10:00;98323.22;;;26.14;33.12
73016;BME280;61893;50.074;14.440;2023-07-13T17:12:36;98327.34;;;25.90;33.37
73016;BME280;61893;50.074;14.440;2023-07-13T17:15:46;98326.91;;;25.76;33.64
73016;BME280;61893;50.074;14.440;2023-07-13T17:18:45;98328.13;;;25.63;33.89
73016;BME280;61893;50.074;14.440;2023-07-13T17:21:25;98324.94;;;25.49;34.30
73016;BME280;61893;50.074;14.440;2023-07-13T17:23:59;98326.41;;;25.57;34.22
73016;BME280;61893;50.074;14.440;2023-07-13T17:26:31;98327.75;;;25.54;34.21
73016;BME280;61893;50.074;14.440;2023-07-13T17:31:32;98326.72;;;25.60;34.48
73016;BME280;61893;50.074;14.440;2023-07-13T17:33:59;98332.69;;;25.57;34.49
73016;BME280;61893;50.074;14.440;2023-07-13T17:36:25;98327.38;;;25.46;34.24
73016;BME280;61893;50.074;14.440;2023-07-13T17:38:51;98335.47;;;25.40;34.70
73016;BME280;61893;50.074;14.440;2023-07-13T17:41:22;98336.69;;;25.28;34.75
73016;BME280;61893;50.074;14.440;2023-07-13T17:43:50;98343.84;;;25.34;35.09
73016;BME280;61893;50.074;14.440;2023-07-13T17:46:21;98353.09;;;25.33;35.06
73016;BME280;61893;50.074;14.440;2023-07-13T17:48:55;98348.91;;;25.25;34.83
73016;BME280;61893;50.074;14.440;2023-07-13T17:51:34;98350.88;;;25.30;35.13
73016;BME280;61893;50.074;14.440;2023-07-13T17:54:12;98356.00;;;25.09;35.09
73016;BME280;61893;50.074;14.440;2023-07-13T17:56:50;98352.63;;;25.02;35.54
73016;BME280;61893;50.074;14.440;2023-07-13T17:59:21;98363.53;;;25.02;35.53
73016;BME280;61893;50.074;14.440;2023-07-13T18:02:19;98367.56;;;25.00;35.40
73016;BME280;61893;50.074;14.440;2023-07-13T18:04:47;98363.38;;;24.92;36.02
73016;BME280;61893;50.074;14.440;2023-07-13T18:07:13;98368.88;;;24.97;35.66
73016;BME280;61893;50.074;14.440;2023-07-13T18:09:43;98369.00;;;24.85;35.66
73016;BME280;61893;50.074;14.440;2023-07-13T18:12:11;98368.81;;;24.92;35.76
73016;BME280;61893;50.074;14.440;2023-07-13T18:14:37;98375.84;;;24.88;35.81
73016;BME280;61893;50.074;14.440;2023-07-13T18:17:03;98375.16;;;24.98;35.78
73016;BME280;61893;50.074;14.440;2023-07-13T18:19:38;98375.16;;;24.98;35.66
73016;BME280;61893;50.074;14.440;2023-07-13T18:22:16;98381.44;;;24.98;35.25
73016;BME280;61893;50.074;14.440;2023-07-13T18:24:46;98382.41;;;24.92;35.68
73016;BME280;61893;50.074;14.440;2023-07-13T18:27:17;98379.56;;;24.82;35.84
73016;BME280;61893;50.074;14.440;2023-07-13T18:29:43;98375.53;;;24.84;35.52
73016;BME280;61893;50.074;14.440;2023-07-13T18:32:22;98384.22;;;24.86;35.63
73016;BME280;61893;50.074;14.440;2023-07-13T18:34:51;98385.63;;;24.89;35.76
73016;BME280;61893;50.074;14.440;2023-07-13T18:37:19;98386.72;;;24.88;35.71
73016;BME280;61893;50.074;14.440;2023-07-13T18:40:14;98387.72;;;24.82;35.61
73016;BME280;61893;50.074;14.440;2023-07-13T18:42:43;98388.72;;;24.76;35.85
73016;BME280;61893;50.074;14.440;2023-07-13T18:45:24;98392.84;;;24.61;35.78
73016;BME280;61893;50.074;14.440;2023-07-13T18:47:55;98392.06;;;24.49;35.79
73016;BME280;61893;50.074;14.440;2023-07-13T18:50:29;98394.00;;;24.37;36.56
73016;BME280;61893;50.074;14.440;2023-07-13T18:52:56;98400.44;;;24.31;36.24
73016;BME280;61893;50.074;14.440;2023-07-13T18:55:24;98403.47;;;24.34;36.50
73016;BME280;61893;50.074;14.440;2023-07-13T18:57:50;98406.59;;;24.26;36.33
73016;BME280;61893;50.074;14.440;2023-07-13T19:00:25;98405.44;;;24.22;36.52
73016;BME280;61893;50.074;14.440;2023-07-13T19:02:54;98414.31;;;24.17;36.08
73016;BME280;61893;50.074;14.440;2023-07-13T19:05:23;98410.78;;;24.17;36.29
73016;BME280;61893;50.074;14.440;2023-07-13T19:07:52;98414.97;;;24.08;36.57
73016;BME280;61893;50.074;14.440;2023-07-13T19:10:23;98418.28;;;23.98;37.08
73016;BME280;61893;50.074;14.440;2023-07-13T19:12:51;98426.25;;;23.88;37.09
73016;BME280;61893;50.074;14.440;2023-07-13T19:15:21;98429.34;;;23.79;37.73
73016;BME280;61893;50.074;14.440;2023-07-13T19:17:49;98428.66;;;23.72;37.39
73016;BME280;61893;50.074;14.440;2023-07-13T19:20:20;98423.91;;;23.68;37.98
73016;BME280;61893;50.074;14.440;2023-07-13T19:22:51;98438.09;;;23.70;37.79
73016;BME280;61893;50.074;14.440;2023-07-13T19:25:20;98436.56;;;23.62;38.42
73016;BME280;61893;50.074;14.440;2023-07-13T19:27:47;98441.38;;;23.60;38.07
73016;BME280;61893;50.074;14.440;2023-07-13T19:30:15;98445.41;;;23.57;38.39
73016;BME280;61893;50.074;14.440;2023-07-13T19:32:45;98454.75;;;23.61;38.57
73016;BME280;61893;50.074;14.440;2023-07-13T19:35:12;98460.06;;;23.56;38.38
73016;BME280;61893;50.074;14.440;2023-07-13T19:37:38;98458.91;;;23.52;38.97
73016;BME280;61893;50.074;14.440;2023-07-13T19:40:20;98466.19;;;23.52;39.16
73016;BME280;61893;50.074;14.440;2023-07-13T19:42:48;98462.31;;;23.36;39.22
73016;BME280;61893;50.074;14.440;2023-07-13T19:45:18;98469.66;;;23.35;39.05
73016;BME280;61893;50.074;14.440;2023-07-13T19:47:44;98481.56;;;23.23;39.76
73016;BME280;61893;50.074;14.440;2023-07-13T19:50:13;98489.69;;;23.23;39.92
73016;BME280;61893;50.074;14.440;2023-07-13T19:52:47;98489.34;;;23.19;39.24
73016;BME280;61893;50.074;14.440;2023-07-13T19:55:17;98490.50;;;23.11;39.52
73016;BME280;61893;50.074;14.440;2023-07-13T19:57:45;98496.88;;;23.05;39.99
73016;BME280;61893;50.074;14.440;2023-07-13T20:00:21;98492.41;;;22.99;39.83
73016;BME280;61893;50.074;14.440;2023-07-13T20:05:31;98501.13;;;23.01;39.59
73016;BME280;61893;50.074;14.440;2023-07-13T20:08:01;98509.34;;;22.94;40.02
73016;BME280;61893;50.074;14.440;2023-07-13T20:13:12;98506.13;;;22.86;39.60
73016;BME280;61893;50.074;14.440;2023-07-13T20:15:58;98507.66;;;22.82;39.80
73016;BME280;61893;50.074;14.440;2023-07-13T20:18:25;98511.81;;;22.84;39.88
73016;BME280;61893;50.074;14.440;2023-07-13T20:20:52;98518.03;;;22.73;40.06
73016;BME280;61893;50.074;14.440;2023-07-13T20:23:20;98517.69;;;22.81;39.94
73016;BME280;61893;50.074;14.440;2023-07-13T20:25:51;98525.09;;;22.74;40.03
73016;BME280;61893;50.074;14.440;2023-07-13T20:28:17;98531.47;;;22.80;39.88
73016;BME280;61893;50.074;14.440;2023-07-13T20:30:45;98531.00;;;22.83;40.12
73016;BME280;61893;50.074;14.440;2023-07-13T20:33:21;98541.81;;;22.71;40.16
73016;BME280;61893;50.074;14.440;2023-07-13T20:35:48;98538.75;;;22.67;40.70
73016;BME280;61893;50.074;14.440;2023-07-13T20:38:17;98540.06;;;22.77;40.65
73016;BME280;61893;50.074;14.440;2023-07-13T20:40:50;98539.13;;;22.71;40.60
73016;BME280;61893;50.074;14.440;2023-07-13T20:43:32;98538.25;;;22.59;41.03
73016;BME280;61893;50.074;14.440;2023-07-13T20:46:02;98545.59;;;22.70;40.65
73016;BME280;61893;50.074;14.440;2023-07-13T20:48:38;98547.34;;;22.64;40.62
73016;BME280;61893;50.074;14.440;2023-07-13T20:53:54;98545.94;;;22.62;41.15
73016;BME280;61893;50.074;14.440;2023-07-13T20:56:26;98550.53;;;22.61;41.06
73016;BME280;61893;50.074;14.440;2023-07-13T20:58:52;98546.53;;;22.64;41.12
73016;BME280;61893;50.074;14.440;2023-07-13T21:01:22;98555.34;;;22.59;40.96
73016;BME280;61893;50.074;14.440;2023-07-13T21:03:56;98547.22;;;22.59;40.85
73016;BME280;61893;50.074;14.440;2023-07-13T21:06:23;98556.56;;;22.45;41.31
73016;BME280;61893;50.074;14.440;2023-07-13T21:08:49;98555.59;;;22.39;41.33
73016;BME280;61893;50.074;14.440;2023-07-13T21:11:17;98576.56;;;22.32;41.58
73016;BME280;61893;50.074;14.440;2023-07-13T21:16:24;98564.81;;;22.20;42.26
73016;BME280;61893;50.074;14.440;2023-07-13T21:18:51;98565.53;;;22.09;42.05
73016;BME280;61893;50.074;14.440;2023-07-13T21:21:19;98563.72;;;22.02;42.39
73016;BME280;61893;50.074;14.440;2023-07-13T21:23:49;98567.41;;;21.90;42.91
73016;BME280;61893;50.074;14.440;2023-07-13T21:26:18;98574.50;;;21.66;43.09
73016;BME280;61893;50.074;14.440;2023-07-13T21:28:46;98573.16;;;21.56;43.55
73016;BME280;61893;50.074;14.440;2023-07-13T21:31:45;98572.41;;;21.49;43.94
73016;BME280;61893;50.074;14.440;2023-07-13T21:34:15;98571.13;;;21.52;43.88
73016;BME280;61893;50.074;14.440;2023-07-13T21:36:48;98574.34;;;21.35;44.17
73016;BME280;61893;50.074;14.440;2023-07-13T21:39:18;98574.78;;;21.32;44.33
73016;BME280;61893;50.074;14.440;2023-07-13T21:41:45;98576.94;;;21.24;44.32
73016;BME280;61893;50.074;14.440;2023-07-13T21:44:28;98581.47;;;21.30;44.52
73016;BME280;61893;50.074;14.440;2023-07-13T21:46:54;98582.63;;;21.15;44.87
73016;BME280;61893;50.074;14.440;2023-07-13T21:49:22;98583.88;;;21.13;44.49
73016;BME280;61893;50.074;14.440;2023-07-13T21:51:48;98588.94;;;21.03;44.46
73016;BME280;61893;50.074;14.440;2023-07-13T21:54:16;98583.09;;;21.06;44.32
73016;BME280;61893;50.074;14.440;2023-07-13T21:56:43;98577.34;;;20.96;44.33
73016;BME280;61893;50.074;14.440;2023-07-13T21:59:23;98588.00;;;20.90;44.21
73016;BME280;61893;50.074;14.440;2023-07-13T22:07:34;98594.22;;;20.91;45.25
73016;BME280;61893;50.074;14.440;2023-07-13T22:10:00;98590.94;;;20.89;47.81
73016;BME280;61893;50.074;14.440;2023-07-13T22:12:26;98599.63;;;20.91;48.49
73016;BME280;61893;50.074;14.440;2023-07-13T22:14:52;98599.88;;;20.83;49.39
73016;BME280;61893;50.074;14.440;2023-07-13T22:17:18;98600.78;;;20.70;50.18
73016;BME280;61893;50.074;14.440;2023-07-13T22:19:44;98603.53;;;20.63;50.36
73016;BME280;61893;50.074;14.440;2023-07-13T22:22:10;98596.47;;;20.62;51.11
73016;BME280;61893;50.074;14.440;2023-07-13T22:24:36;98605.44;;;20.56;51.41
73016;BME280;61893;50.074;14.440;2023-07-13T22:27:03;98599.22;;;20.49;52.44
73016;BME280;61893;50.074;14.440;2023-07-13T22:29:31;98600.66;;;20.45;52.58
73016;BME280;61893;50.074;14.440;2023-07-13T22:31:58;98601.72;;;20.44;53.65
73016;BME280;61893;50.074;14.440;2023-07-13T22:34:24;98603.63;;;20.30;54.01
73016;BME280;61893;50.074;14.440;2023-07-13T22:36:50;98608.44;;;20.21;54.93
73016;BME280;61893;50.074;14.440;2023-07-13T22:39:36;98608.88;;;20.18;55.04
73016;BME280;61893;50.074;14.440;2023-07-13T22:42:03;98608.91;;;20.12;55.97
73016;BME280;61893;50.074;14.440;2023-07-13T22:44:28;98604.13;;;20.07;55.97
73016;BME280;61893;50.074;14.440;2023-07-13T22:46:56;98612.63;;;20.11;56.10
73016;BME280;61893;50.074;14.440;2023-07-13T22:49:25;98608.91;;;20.05;56.57
73016;BME280;61893;50.074;14.440;2023-07-13T22:51:54;98617.22;;;20.10;56.20
73016;BME280;61893;50.074;14.440;2023-07-13T22:54:20;98616.97;;;20.18;55.82
73016;BME280;61893;50.074;14.440;2023-07-13T22:56:48;98616.34;;;20.16;55.85
73016;BME280;61893;50.074;14.440;2023-07-13T22:59:13;98624.25;;;20.18;55.96
73016;BME280;61893;50.074;14.440;2023-07-13T23:01:41;98618.22;;;20.16;56.28
73016;BME280;61893;50.074;14.440;2023-07-13T23:06:48;98611.81;;;19.97;56.46
73016;BME280;61893;50.074;14.440;2023-07-13T23:09:19;98616.00;;;19.93;56.98
73016;BME280;61893;50.074;14.440;2023-07-13T23:11:46;98607.69;;;19.88;57.05
73016;BME280;61893;50.074;14.440;2023-07-13T23:14:12;98613.97;;;19.75;56.96
73016;BME280;61893;50.074;14.440;2023-07-13T23:16:38;98615.19;;;19.66;56.28
73016;BME280;61893;50.074;14.440;2023-07-13T23:19:05;98612.47;;;19.59;56.29
73016;BME280;61893;50.074;14.440;2023-07-13T23:21:35;98613.94;;;19.55;55.95
73016;BME280;61893;50.074;14.440;2023-07-13T23:24:01;98618.69;;;19.53;55.82
73016;BME280;61893;50.074;14.440;2023-07-13T23:26:27;98616.41;;;19.50;55.90
73016;BME280;61893;50.074;14.440;2023-07-13T23:28:53;98609.97;;;19.44;55.77
73016;BME280;61893;50.074;14.440;2023-07-13T23:31:25;98611.44;;;19.33;56.30
73016;BME280;61893;50.074;14.440;2023-07-13T23:33:52;98616.59;;;19.28;56.21
73016;BME280;61893;50.074;14.440;2023-07-13T23:36:19;98614.53;;;19.24;56.74
73016;BME280;61893;50.074;14.440;2023-07-13T23:38:45;98613.09;;;19.21;57.29
73016;BME280;61893;50.074;14.440;2023-07-13T23:41:17;98613.28;;;19.13;57.15
73016;BME280;61893;50.074;14.440;2023-07-13T23:43:44;98613.47;;;19.05;56.74
73016;BME280;61893;50.074;14.440;2023-07-13T23:48:47;98611.59;;;18.92;57.07
73016;BME280;61893;50.074;14.440;2023-07-13T23:51:14;98606.59;;;18.89;56.74
73016;BME280;61893;50.074;14.440;2023-07-13T23:53:40;98613.00;;;18.88;55.70
73016;BME280;61893;50.074;14.440;2023-07-13T23:56:21;98606.81;;;18.87;56.18
73016;BME280;61893;50.074;14.440;2023-07-13T23:58:49;98613.19;;;18.80;55.80
